sensor_id;sensor_type;location;lat;lon;timestamp;pressure;altitude;pressure_sealevel;temperature;humidity
35443;BME280;21561;55.654;37.592;2023-04-05T00:01:37;99528.84;;;7.66;85.57
35443;BME280;21561;55.654;37.592;2023-04-05T00:04:04;99530.56;;;7.62;86.54
35443;BME280;21561;55.654;37.592;2023-04-05T00:06:31;99521.94;;;7.60;86.70
35443;BME280;21561;55.654;37.592;2023-04-05T00:08:58;99520.22;;;7.58;87.76
35443;BME280;21561;55.654;37.592;2023-04-05T00:11:25;99516.78;;;7.56;87.25
35443;BME280;21561;55.654;37.592;2023-04-05T00:13:52;99518.47;;;7.48;87.43
35443;BME280;21561;55.654;37.592;2023-04-05T00:16:19;99527.06;;;7.43;87.08
35443;BME280;21561;55.654;37.592;2023-04-05T00:18:46;99521.88;;;7.40;86.83
35443;BME280;21561;55.654;37.592;2023-04-05T00:21:17;99524.44;;;7.37;87.50
35443;BME280;21561;55.654;37.592;2023-04-05T00:23:51;99515.00;;;7.36;87.77
35443;BME280;21561;55.654;37.592;2023-04-05T00:26:18;99514.97;;;7.33;87.34
35443;BME280;21561;55.654;37.592;2023-04-05T00:28:45;99523.56;;;7.29;86.86
35443;BME280;21561;55.654;37.592;2023-04-05T00:31:12;99518.38;;;7.26;87.42
35443;BME280;21561;55.654;37.592;2023-04-05T00:33:39;99518.38;;;7.26;86.95
35443;BME280;21561;55.654;37.592;2023-04-05T00:38:36;99523.53;;;7.23;86.78
35443;BME280;21561;55.654;37.592;2023-04-05T00:41:03;99521.81;;;7.22;87.01
35443;BME280;21561;55.654;37.592;2023-04-05T00:43:30;99526.97;;;7.22;86.78
35443;BME280;21561;55.654;37.592;2023-04-05T00:45:57;99530.41;;;7.21;86.66
35443;BME280;21561;55.654;37.592;2023-04-05T00:48:23;99526.97;;;7.19;86.94
35443;BME280;21561;55.654;37.592;2023-04-05T00:50:50;99532.09;;;7.16;87.24
35443;BME280;21561;55.654;37.592;2023-04-05T00:53:17;99530.38;;;7.15;86.94
35443;BME280;21561;55.654;37.592;2023-04-05T00:55:48;99538.97;;;7.14;87.41
35443;BME280;21561;55.654;37.592;2023-04-05T00:58:15;99537.25;;;7.10;87.41
35443;BME280;21561;55.654;37.592;2023-04-05T01:00:46;99538.94;;;7.07;87.58
35443;BME280;21561;55.654;37.592;2023-04-05T01:03:18;99539.78;;;7.05;87.68
35443;BME280;21561;55.654;37.592;2023-04-05T01:05:46;99541.50;;;7.03;87.71
35443;BME280;21561;55.654;37.592;2023-04-05T01:08:15;99544.06;;;7.01;87.68
35443;BME280;21561;55.654;37.592;2023-04-05T01:10:47;99538.91;;;6.98;87.55
35443;BME280;21561;55.654;37.592;2023-04-05T01:13:16;99540.59;;;6.95;87.88
35443;BME280;21561;55.654;37.592;2023-04-05T01:15:43;99542.28;;;6.93;87.94
35443;BME280;21561;55.654;37.592;2023-04-05T01:18:09;99546.56;;;6.91;88.12
35443;BME280;21561;55.654;37.592;2023-04-05T01:20:38;99542.28;;;6.88;88.18
35443;BME280;21561;55.654;37.592;2023-04-05T01:26:03;99537.09;;;6.85;88.05
35443;BME280;21561;55.654;37.592;2023-04-05T01:38:47;99547.31;;;6.73;88.33
35443;BME280;21561;55.654;37.592;2023-04-05T01:41:14;99541.28;;;6.69;88.66
35443;BME280;21561;55.654;37.592;2023-04-05T01:43:41;99542.13;;;6.66;88.75
35443;BME280;21561;55.654;37.592;2023-04-05T01:46:07;99543.84;;;6.64;88.80
35443;BME280;21561;55.654;37.592;2023-04-05T01:48:34;99547.25;;;6.62;88.83
35443;BME280;21561;55.654;37.592;2023-04-05T01:51:00;99538.66;;;6.61;88.87
35443;BME280;21561;55.654;37.592;2023-04-05T01:53:27;99540.38;;;6.59;88.79
35443;BME280;21561;55.654;37.592;2023-04-05T01:55:58;99540.34;;;6.56;89.05
35443;BME280;21561;55.654;37.592;2023-04-05T01:58:24;99536.84;;;6.51;89.41
35443;BME280;21561;55.654;37.592;2023-04-05T02:00:54;99547.16;;;6.48;89.31
35443;BME280;21561;55.654;37.592;2023-04-05T02:03:23;99540.22;;;6.44;89.47
35443;BME280;21561;55.654;37.592;2023-04-05T02:05:50;99541.91;;;6.39;89.64
35443;BME280;21561;55.654;37.592;2023-04-05T02:08:17;99550.50;;;6.36;89.42
35443;BME280;21561;55.654;37.592;2023-04-05T02:10:44;99550.47;;;6.35;89.36
35443;BME280;21561;55.654;37.592;2023-04-05T02:13:11;99548.72;;;6.30;89.61
35443;BME280;21561;55.654;37.592;2023-04-05T02:15:39;99552.13;;;6.26;89.59
35443;BME280;21561;55.654;37.592;2023-04-05T02:18:05;99552.09;;;6.23;91.66
35443;BME280;21561;55.654;37.592;2023-04-05T02:20:33;99552.94;;;6.19;90.55
35443;BME280;21561;55.654;37.592;2023-04-05T02:23:00;99559.75;;;6.14;90.53
35443;BME280;21561;55.654;37.592;2023-04-05T02:25:27;99561.44;;;6.10;90.56
35443;BME280;21561;55.654;37.592;2023-04-05T02:27:53;99560.53;;;6.07;90.51
35443;BME280;21561;55.654;37.592;2023-04-05T02:30:20;99560.53;;;6.07;91.37
35443;BME280;21561;55.654;37.592;2023-04-05T02:32:46;99565.66;;;6.04;92.09
35443;BME280;21561;55.654;37.592;2023-04-05T02:35:13;99568.16;;;5.96;92.00
35443;BME280;21561;55.654;37.592;2023-04-05T02:37:42;99567.25;;;5.92;91.88
35443;BME280;21561;55.654;37.592;2023-04-05T02:40:11;99568.94;;;5.90;91.99
35443;BME280;21561;55.654;37.592;2023-04-05T02:42:38;99573.19;;;5.87;91.87
35443;BME280;21561;55.654;37.592;2023-04-05T02:45:05;99574.00;;;5.84;92.08
35443;BME280;21561;55.654;37.592;2023-04-05T02:47:33;99574.00;;;5.84;91.99
35443;BME280;21561;55.654;37.592;2023-04-05T02:50:00;99575.69;;;5.81;92.29
35443;BME280;21561;55.654;37.592;2023-04-05T02:52:27;99575.72;;;5.82;91.96
35443;BME280;21561;55.654;37.592;2023-04-05T02:54:54;99575.66;;;5.79;93.04
35443;BME280;21561;55.654;37.592;2023-04-05T02:57:21;99576.50;;;5.77;93.35
35443;BME280;21561;55.654;37.592;2023-04-05T02:59:47;99574.75;;;5.74;92.74
35443;BME280;21561;55.654;37.592;2023-04-05T03:02:14;99573.88;;;5.72;92.51
35443;BME280;21561;55.654;37.592;2023-04-05T03:04:41;99582.44;;;5.71;92.42
35443;BME280;21561;55.654;37.592;2023-04-05T03:07:10;99585.88;;;5.70;92.67
35443;BME280;21561;55.654;37.592;2023-04-05T03:09:39;99585.88;;;5.70;92.32
35443;BME280;21561;55.654;37.592;2023-04-05T03:12:06;99587.56;;;5.68;92.65
35443;BME280;21561;55.654;37.592;2023-04-05T03:14:32;99584.09;;;5.66;92.78
35443;BME280;21561;55.654;37.592;2023-04-05T03:16:59;99594.41;;;5.66;92.95
35443;BME280;21561;55.654;37.592;2023-04-05T03:19:26;99591.84;;;5.67;92.90
35443;BME280;21561;55.654;37.592;2023-04-05T03:21:53;99592.72;;;5.68;92.98
35443;BME280;21561;55.654;37.592;2023-04-05T03:24:19;99591.84;;;5.66;92.78
35443;BME280;21561;55.654;37.592;2023-04-05T03:26:46;99594.44;;;5.69;93.35
35443;BME280;21561;55.654;37.592;2023-04-05T03:29:14;99596.09;;;5.64;93.58
35443;BME280;21561;55.654;37.592;2023-04-05T03:31:42;99597.84;;;5.66;93.72
35443;BME280;21561;55.654;37.592;2023-04-05T03:34:08;99605.53;;;5.62;93.85
35443;BME280;21561;55.654;37.592;2023-04-05T03:36:35;99608.94;;;5.62;93.51
35443;BME280;21561;55.654;37.592;2023-04-05T03:39:08;99608.09;;;5.63;93.33
35443;BME280;21561;55.654;37.592;2023-04-05T03:41:36;99610.72;;;5.66;93.46
35443;BME280;21561;55.654;37.592;2023-04-05T03:44:02;99613.31;;;5.68;94.05
35443;BME280;21561;55.654;37.592;2023-04-05T03:46:29;99609.84;;;5.66;94.19
35443;BME280;21561;55.654;37.592;2023-04-05T03:48:56;99618.41;;;5.65;93.77
35443;BME280;21561;55.654;37.592;2023-04-05T03:51:23;99616.69;;;5.64;93.81
35443;BME280;21561;55.654;37.592;2023-04-05T03:53:50;99623.56;;;5.65;93.98
35443;BME280;21561;55.654;37.592;2023-04-05T03:56:16;99620.19;;;5.67;94.27
35443;BME280;21561;55.654;37.592;2023-04-05T03:58:43;99624.47;;;5.68;94.86
35443;BME280;21561;55.654;37.592;2023-04-05T04:01:10;99622.72;;;5.66;94.51
35443;BME280;21561;55.654;37.592;2023-04-05T04:03:37;99621.84;;;5.64;95.11
35443;BME280;21561;55.654;37.592;2023-04-05T04:06:04;99628.72;;;5.66;94.52
35443;BME280;21561;55.654;37.592;2023-04-05T04:08:32;99632.16;;;5.67;94.61
35443;BME280;21561;55.654;37.592;2023-04-05T04:10:59;99637.31;;;5.67;94.55
35443;BME280;21561;55.654;37.592;2023-04-05T04:13:25;99633.91;;;5.68;94.66
35443;BME280;21561;55.654;37.592;2023-04-05T04:15:52;99628.78;;;5.71;95.09
35443;BME280;21561;55.654;37.592;2023-04-05T04:18:18;99633.09;;;5.73;94.84
35443;BME280;21561;55.654;37.592;2023-04-05T04:20:45;99638.31;;;5.77;94.48
35443;BME280;21561;55.654;37.592;2023-04-05T04:23:13;99635.78;;;5.80;94.15
35443;BME280;21561;55.654;37.592;2023-04-05T04:25:39;99643.53;;;5.84;94.34
35443;BME280;21561;55.654;37.592;2023-04-05T04:28:11;99649.59;;;5.89;94.33
35443;BME280;21561;55.654;37.592;2023-04-05T04:30:42;99638.56;;;5.97;94.10
35443;BME280;21561;55.654;37.592;2023-04-05T04:33:08;99647.22;;;6.03;94.33
35443;BME280;21561;55.654;37.592;2023-04-05T04:35:35;99649.03;;;6.10;94.29
35443;BME280;21561;55.654;37.592;2023-04-05T04:38:08;99649.94;;;6.14;93.88
35443;BME280;21561;55.654;37.592;2023-04-05T04:40:35;99649.94;;;6.14;93.87
35443;BME280;21561;55.654;37.592;2023-04-05T04:45:31;99656.75;;;6.09;93.69
35443;BME280;21561;55.654;37.592;2023-04-05T04:48:03;99656.75;;;6.09;93.65
35443;BME280;21561;55.654;37.592;2023-04-05T04:50:31;99659.34;;;6.12;93.62
35443;BME280;21561;55.654;37.592;2023-04-05T04:52:57;99656.75;;;6.09;93.37
35443;BME280;21561;55.654;37.592;2023-04-05T04:55:24;99655.84;;;6.05;93.50
35443;BME280;21561;55.654;37.592;2023-04-05T04:57:51;99661.88;;;6.09;93.59
35443;BME280;21561;55.654;37.592;2023-04-05T05:00:19;99660.25;;;6.17;93.63
35443;BME280;21561;55.654;37.592;2023-04-05T05:02:46;99663.78;;;6.25;92.94
35443;BME280;21561;55.654;37.592;2023-04-05T05:05:12;99662.94;;;6.25;92.88
35443;BME280;21561;55.654;37.592;2023-04-05T05:07:39;99657.78;;;6.28;92.83
35443;BME280;21561;55.654;37.592;2023-04-05T05:10:10;99658.59;;;6.22;92.75
35443;BME280;21561;55.654;37.592;2023-04-05T05:12:37;99668.91;;;6.22;92.68
35443;BME280;21561;55.654;37.592;2023-04-05T05:15:04;99664.63;;;6.24;92.48
35443;BME280;21561;55.654;37.592;2023-04-05T05:17:31;99671.50;;;6.24;92.47
35443;BME280;21561;55.654;37.592;2023-04-05T05:19:57;99672.38;;;6.26;92.30
35443;BME280;21561;55.654;37.592;2023-04-05T05:22:26;99677.53;;;6.27;92.21
35443;BME280;21561;55.654;37.592;2023-04-05T05:24:52;99684.44;;;6.28;92.10
35443;BME280;21561;55.654;37.592;2023-04-05T05:27:19;99675.84;;;6.26;92.11
35443;BME280;21561;55.654;37.592;2023-04-05T05:29:47;99685.34;;;6.34;91.85
35443;BME280;21561;55.654;37.592;2023-04-05T05:32:14;99678.34;;;6.22;91.39
35443;BME280;21561;55.654;37.592;2023-04-05T05:34:42;99688.56;;;6.14;91.32
35443;BME280;21561;55.654;37.592;2023-04-05T05:37:10;99685.94;;;6.11;91.41
35443;BME280;21561;55.654;37.592;2023-04-05T05:39:37;99682.56;;;6.15;91.23
35443;BME280;21561;55.654;37.592;2023-04-05T05:42:05;99696.31;;;6.17;91.11
35443;BME280;21561;55.654;37.592;2023-04-05T05:44:31;99682.66;;;6.21;90.96
35443;BME280;21561;55.654;37.592;2023-04-05T05:46:58;99685.28;;;6.27;90.69
35443;BME280;21561;55.654;37.592;2023-04-05T05:49:24;99688.78;;;6.34;90.68
35443;BME280;21561;55.654;37.592;2023-04-05T05:51:51;99681.09;;;6.40;90.40
35443;BME280;21561;55.654;37.592;2023-04-05T05:54:18;99692.38;;;6.48;90.20
35443;BME280;21561;55.654;37.592;2023-04-05T05:56:45;99683.00;;;6.58;90.15
35443;BME280;21561;55.654;37.592;2023-04-05T05:59:11;99686.56;;;6.69;89.95
35443;BME280;21561;55.654;37.592;2023-04-05T06:01:38;99693.41;;;6.67;89.83
35443;BME280;21561;55.654;37.592;2023-04-05T06:04:08;99696.88;;;6.69;89.85
35443;BME280;21561;55.654;37.592;2023-04-05T06:06:35;99695.22;;;6.78;89.79
35443;BME280;21561;55.654;37.592;2023-04-05T06:09:03;99690.19;;;6.90;89.62
35443;BME280;21561;55.654;37.592;2023-04-05T06:11:29;99691.94;;;6.97;89.14
35443;BME280;21561;55.654;37.592;2023-04-05T06:13:56;99697.16;;;7.00;88.53
35443;BME280;21561;55.654;37.592;2023-04-05T06:16:23;99701.44;;;6.98;88.08
35443;BME280;21561;55.654;37.592;2023-04-05T06:18:49;99697.19;;;7.03;88.50
35443;BME280;21561;55.654;37.592;2023-04-05T06:21:16;99699.81;;;7.13;88.43
35443;BME280;21561;55.654;37.592;2023-04-05T06:23:43;99697.31;;;7.22;88.31
35443;BME280;21561;55.654;37.592;2023-04-05T06:26:19;99707.66;;;7.25;88.13
35443;BME280;21561;55.654;37.592;2023-04-05T06:28:47;99712.00;;;7.29;87.96
35443;BME280;21561;55.654;37.592;2023-04-05T06:31:19;99712.84;;;7.31;87.88
35443;BME280;21561;55.654;37.592;2023-04-05T06:33:46;99716.38;;;7.39;87.67
35443;BME280;21561;55.654;37.592;2023-04-05T06:36:12;99715.50;;;7.42;87.56
35443;BME280;21561;55.654;37.592;2023-04-05T06:38:39;99718.13;;;7.50;87.05
35443;BME280;21561;55.654;37.592;2023-04-05T06:41:05;99710.41;;;7.53;86.57
35443;BME280;21561;55.654;37.592;2023-04-05T06:43:32;99719.91;;;7.52;86.54
35443;BME280;21561;55.654;37.592;2023-04-05T06:45:58;99721.66;;;7.58;86.68
35443;BME280;21561;55.654;37.592;2023-04-05T06:48:26;99719.97;;;7.69;86.67
35443;BME280;21561;55.654;37.592;2023-04-05T06:51:01;99715.75;;;7.83;86.74
35443;BME280;21561;55.654;37.592;2023-04-05T06:53:28;99727.03;;;7.98;86.42
35443;BME280;21561;55.654;37.592;2023-04-05T06:55:55;99717.59;;;8.08;86.48
35443;BME280;21561;55.654;37.592;2023-04-05T06:58:22;99715.06;;;8.18;86.38
35443;BME280;21561;55.654;37.592;2023-04-05T07:00:49;99720.22;;;8.18;85.97
35443;BME280;21561;55.654;37.592;2023-04-05T07:03:16;99721.06;;;8.16;85.81
35443;BME280;21561;55.654;37.592;2023-04-05T07:05:53;99718.47;;;8.14;85.79
35443;BME280;21561;55.654;37.592;2023-04-05T07:08:20;99720.22;;;8.18;85.67
35443;BME280;21561;55.654;37.592;2023-04-05T07:10:47;99728.00;;;8.18;85.47
35443;BME280;21561;55.654;37.592;2023-04-05T07:13:13;99727.97;;;8.20;84.86
35443;BME280;21561;55.654;37.592;2023-04-05T07:15:40;99725.41;;;8.18;84.57
35443;BME280;21561;55.654;37.592;2023-04-05T07:18:07;99727.97;;;8.20;84.05
35443;BME280;21561;55.654;37.592;2023-04-05T07:20:34;99725.41;;;8.25;84.03
35443;BME280;21561;55.654;37.592;2023-04-05T07:23:00;99729.72;;;8.30;82.58
35443;BME280;21561;55.654;37.592;2023-04-05T07:25:27;99723.69;;;8.20;82.14
35443;BME280;21561;55.654;37.592;2023-04-05T07:27:54;99723.69;;;8.20;83.21
35443;BME280;21561;55.654;37.592;2023-04-05T07:30:20;99725.44;;;8.28;83.36
35443;BME280;21561;55.654;37.592;2023-04-05T07:32:47;99727.16;;;8.32;83.33
35443;BME280;21561;55.654;37.592;2023-04-05T07:35:13;99726.31;;;8.39;83.21
35443;BME280;21561;55.654;37.592;2023-04-05T07:37:40;99730.69;;;8.46;82.98
35443;BME280;21561;55.654;37.592;2023-04-05T07:40:07;99728.97;;;8.57;82.72
35443;BME280;21561;55.654;37.592;2023-04-05T07:42:37;99730.72;;;8.63;81.57
35443;BME280;21561;55.654;37.592;2023-04-05T07:45:04;99732.47;;;8.67;82.01
35443;BME280;21561;55.654;37.592;2023-04-05T07:47:34;99728.19;;;8.82;82.16
35443;BME280;21561;55.654;37.592;2023-04-05T07:50:01;99722.13;;;8.87;81.11
35443;BME280;21561;55.654;37.592;2023-04-05T07:52:28;99721.28;;;8.94;80.94
35443;BME280;21561;55.654;37.592;2023-04-05T07:54:55;99721.28;;;9.02;81.54
35443;BME280;21561;55.654;37.592;2023-04-05T07:57:22;99722.16;;;9.18;81.77
35443;BME280;21561;55.654;37.592;2023-04-05T07:59:49;99724.75;;;9.33;81.22
35443;BME280;21561;55.654;37.592;2023-04-05T08:02:20;99725.56;;;9.42;81.23
35443;BME280;21561;55.654;37.592;2023-04-05T08:04:46;99727.31;;;9.52;80.18
35443;BME280;21561;55.654;37.592;2023-04-05T08:07:13;99729.88;;;9.52;80.47
35443;BME280;21561;55.654;37.592;2023-04-05T08:09:39;99734.16;;;9.65;80.97
35443;BME280;21561;55.654;37.592;2023-04-05T08:12:06;99737.59;;;9.83;78.46
35443;BME280;21561;55.654;37.592;2023-04-05T08:14:33;99735.88;;;9.79;75.82
35443;BME280;21561;55.654;37.592;2023-04-05T08:16:59;99723.78;;;9.78;77.54
35443;BME280;21561;55.654;37.592;2023-04-05T08:19:26;99732.41;;;9.80;77.91
35443;BME280;21561;55.654;37.592;2023-04-05T08:21:53;99732.41;;;9.87;77.20
35443;BME280;21561;55.654;37.592;2023-04-05T08:24:19;99724.59;;;9.95;76.83
35443;BME280;21561;55.654;37.592;2023-04-05T08:26:46;99722.84;;;10.02;76.70
35443;BME280;21561;55.654;37.592;2023-04-05T08:29:12;99727.16;;;10.10;77.18
35443;BME280;21561;55.654;37.592;2023-04-05T08:31:39;99722.78;;;10.16;74.83
35443;BME280;21561;55.654;37.592;2023-04-05T08:34:06;99732.31;;;10.17;76.50
35443;BME280;21561;55.654;37.592;2023-04-05T08:36:33;99724.47;;;10.27;76.76
35443;BME280;21561;55.654;37.592;2023-04-05T08:39:00;99726.13;;;10.48;76.06
35443;BME280;21561;55.654;37.592;2023-04-05T08:41:29;99731.22;;;10.64;76.37
35443;BME280;21561;55.654;37.592;2023-04-05T08:44:01;99728.47;;;10.85;76.40
35443;BME280;21561;55.654;37.592;2023-04-05T08:46:32;99724.06;;;11.00;75.08
35443;BME280;21561;55.654;37.592;2023-04-05T08:49:03;99717.19;;;10.93;71.15
35443;BME280;21561;55.654;37.592;2023-04-05T08:51:30;99723.28;;;10.85;72.58
35443;BME280;21561;55.654;37.592;2023-04-05T08:53:57;99719.91;;;10.80;73.32
35443;BME280;21561;55.654;37.592;2023-04-05T08:56:25;99725.09;;;10.80;74.18
35443;BME280;21561;55.654;37.592;2023-04-05T08:59:03;99725.03;;;10.86;72.63
35443;BME280;21561;55.654;37.592;2023-04-05T09:01:31;99726.72;;;10.94;72.77
35443;BME280;21561;55.654;37.592;2023-04-05T09:03:59;99726.63;;;11.03;73.56
35443;BME280;21561;55.654;37.592;2023-04-05T09:06:27;99720.50;;;11.16;72.50
35443;BME280;21561;55.654;37.592;2023-04-05T09:08:57;99731.66;;;11.24;73.47
35443;BME280;21561;55.654;37.592;2023-04-05T09:11:24;99723.84;;;11.26;73.26
35443;BME280;21561;55.654;37.592;2023-04-05T09:13:50;99725.63;;;11.22;70.63
35443;BME280;21561;55.654;37.592;2023-04-05T09:16:17;99722.09;;;11.30;70.68
35443;BME280;21561;55.654;37.592;2023-04-05T09:18:44;99736.81;;;11.31;72.08
35443;BME280;21561;55.654;37.592;2023-04-05T09:21:11;99735.81;;;11.44;72.57
35443;BME280;21561;55.654;37.592;2023-04-05T09:23:38;99731.28;;;11.64;72.08
35443;BME280;21561;55.654;37.592;2023-04-05T09:26:16;99717.22;;;11.84;71.55
35443;BME280;21561;55.654;37.592;2023-04-05T09:28:43;99717.28;;;11.78;68.93
35443;BME280;21561;55.654;37.592;2023-04-05T09:31:27;99715.53;;;11.80;70.52
35443;BME280;21561;55.654;37.592;2023-04-05T09:33:56;99725.06;;;11.81;70.64
35443;BME280;21561;55.654;37.592;2023-04-05T09:36:23;99718.13;;;11.80;71.41
35443;BME280;21561;55.654;37.592;2023-04-05T09:38:49;99718.91;;;11.88;71.59
35443;BME280;21561;55.654;37.592;2023-04-05T09:41:16;99717.06;;;12.01;71.69
35443;BME280;21561;55.654;37.592;2023-04-05T09:43:43;99722.16;;;12.09;70.49
35443;BME280;21561;55.654;37.592;2023-04-05T09:48:55;99718.94;;;11.85;70.07
35443;BME280;21561;55.654;37.592;2023-04-05T09:51:22;99719.81;;;11.84;70.52
35443;BME280;21561;55.654;37.592;2023-04-05T09:53:59;99725.81;;;11.92;70.63
35443;BME280;21561;55.654;37.592;2023-04-05T09:56:27;99718.78;;;12.00;70.05
35443;BME280;21561;55.654;37.592;2023-04-05T09:58:58;99711.72;;;12.12;70.49
35443;BME280;21561;55.654;37.592;2023-04-05T10:01:27;99714.09;;;12.29;69.04
35443;BME280;21561;55.654;37.592;2023-04-05T10:03:55;99705.91;;;12.58;68.76
35443;BME280;21561;55.654;37.592;2023-04-05T10:06:22;99716.03;;;12.78;68.24
35443;BME280;21561;55.654;37.592;2023-04-05T10:08:49;99717.88;;;12.71;69.27
35443;BME280;21561;55.654;37.592;2023-04-05T10:11:17;99707.34;;;12.77;67.66
35443;BME280;21561;55.654;37.592;2023-04-05T10:13:43;99712.69;;;12.68;68.14
35443;BME280;21561;55.654;37.592;2023-04-05T10:16:12;99712.56;;;12.77;68.78
35443;BME280;21561;55.654;37.592;2023-04-05T10:18:43;99717.38;;;13.02;67.95
35443;BME280;21561;55.654;37.592;2023-04-05T10:21:11;99708.38;;;13.22;65.53
35443;BME280;21561;55.654;37.592;2023-04-05T10:23:41;99708.44;;;13.18;66.83
35443;BME280;21561;55.654;37.592;2023-04-05T10:26:13;99713.03;;;13.55;66.82
35443;BME280;21561;55.654;37.592;2023-04-05T10:28:46;99688.69;;;14.41;64.28
35443;BME280;21561;55.654;37.592;2023-04-05T10:34:13;99684.69;;;15.70;62.02
35443;BME280;21561;55.654;37.592;2023-04-05T10:36:48;99563.28;;;16.35;51.87
35443;BME280;21561;55.654;37.592;2023-04-05T10:39:16;99656.44;;;16.70;58.20
35443;BME280;21561;55.654;37.592;2023-04-05T10:41:47;99699.69;;;16.85;60.93
35443;BME280;21561;55.654;37.592;2023-04-05T10:44:14;99687.22;;;17.18;59.84
35443;BME280;21561;55.654;37.592;2023-04-05T10:46:52;99677.00;;;17.86;59.18
35443;BME280;21561;55.654;37.592;2023-04-05T10:51:45;99641.63;;;18.86;56.77
35443;BME280;21561;55.654;37.592;2023-04-05T10:54:13;99619.66;;;18.87;53.66
35443;BME280;21561;55.654;37.592;2023-04-05T10:56:42;99607.59;;;19.04;53.42
35443;BME280;21561;55.654;37.592;2023-04-05T10:59:10;99611.41;;;19.17;52.65
35443;BME280;21561;55.654;37.592;2023-04-05T11:01:37;99662.44;;;19.13;54.89
35443;BME280;21561;55.654;37.592;2023-04-05T11:04:12;99539.56;;;19.36;50.16
35443;BME280;21561;55.654;37.592;2023-04-05T11:06:39;99642.97;;;19.38;53.79
35443;BME280;21561;55.654;37.592;2023-04-05T11:11:39;99627.91;;;19.81;52.30
35443;BME280;21561;55.654;37.592;2023-04-05T11:17:27;99502.94;;;20.07;48.81
35443;BME280;21561;55.654;37.592;2023-04-05T11:20:01;99480.47;;;19.81;46.97
35443;BME280;21561;55.654;37.592;2023-04-05T11:22:28;99211.34;;;19.58;41.38
35443;BME280;21561;55.654;37.592;2023-04-05T11:27:27;99401.38;;;18.49;45.45
35443;BME280;21561;55.654;37.592;2023-04-05T11:29:54;99370.25;;;18.40;44.57
35443;BME280;21561;55.654;37.592;2023-04-05T11:32:22;99305.06;;;18.29;42.76
35443;BME280;21561;55.654;37.592;2023-04-05T11:34:58;99318.72;;;17.54;42.07
35443;BME280;21561;55.654;37.592;2023-04-05T11:40:23;99452.03;;;17.66;44.90
35443;BME280;21561;55.654;37.592;2023-04-05T11:42:58;99493.91;;;17.93;46.09
35443;BME280;21561;55.654;37.592;2023-04-05T11:45:24;99407.56;;;18.48;44.18
35443;BME280;21561;55.654;37.592;2023-04-05T11:47:51;99363.97;;;18.84;41.97
35443;BME280;21561;55.654;37.592;2023-04-05T11:50:18;99421.41;;;19.12;44.44
35443;BME280;21561;55.654;37.592;2023-04-05T11:52:45;99396.63;;;19.73;43.41
35443;BME280;21561;55.654;37.592;2023-04-05T11:55:32;99392.22;;;20.44;43.82
35443;BME280;21561;55.654;37.592;2023-04-05T11:57:58;99349.44;;;21.21;43.34
35443;BME280;21561;55.654;37.592;2023-04-05T12:00:25;99228.91;;;21.68;41.90
35443;BME280;21561;55.654;37.592;2023-04-05T12:02:55;99316.06;;;21.82;42.87
35443;BME280;21561;55.654;37.592;2023-04-05T12:05:22;99164.84;;;22.22;40.93
35443;BME280;21561;55.654;37.592;2023-04-05T12:07:52;99025.44;;;22.40;36.23
35443;BME280;21561;55.654;37.592;2023-04-05T12:10:21;98999.72;;;21.44;37.02
35443;BME280;21561;55.654;37.592;2023-04-05T12:12:48;99020.28;;;20.35;35.86
35443;BME280;21561;55.654;37.592;2023-04-05T12:15:14;99146.03;;;20.16;38.85
35443;BME280;21561;55.654;37.592;2023-04-05T12:17:47;99208.19;;;20.02;39.75
35443;BME280;21561;55.654;37.592;2023-04-05T12:20:16;99278.28;;;20.38;40.26
35443;BME280;21561;55.654;37.592;2023-04-05T12:22:45;99229.63;;;20.62;39.50
35443;BME280;21561;55.654;37.592;2023-04-05T12:25:14;99210.06;;;20.50;38.14
35443;BME280;21561;55.654;37.592;2023-04-05T12:27:41;99123.25;;;20.15;36.90
35443;BME280;21561;55.654;37.592;2023-04-05T12:30:21;99261.78;;;20.19;40.55
35443;BME280;21561;55.654;37.592;2023-04-05T12:32:52;99177.16;;;19.92;38.11
35443;BME280;21561;55.654;37.592;2023-04-05T12:35:20;99282.88;;;19.84;40.74
35443;BME280;21561;55.654;37.592;2023-04-05T12:37:48;99294.88;;;19.72;40.61
35443;BME280;21561;55.654;37.592;2023-04-05T12:40:19;99307.06;;;19.92;39.94
35443;BME280;21561;55.654;37.592;2023-04-05T12:42:47;99298.69;;;19.84;40.34
35443;BME280;21561;55.654;37.592;2023-04-05T12:45:14;99321.53;;;20.01;40.47
35443;BME280;21561;55.654;37.592;2023-04-05T12:47:56;99322.50;;;20.33;40.36
35443;BME280;21561;55.654;37.592;2023-04-05T12:50:25;99191.59;;;20.82;36.15
35443;BME280;21561;55.654;37.592;2023-04-05T12:52:53;99212.16;;;20.76;39.10
35443;BME280;21561;55.654;37.592;2023-04-05T12:55:20;99139.78;;;20.66;37.72
35443;BME280;21561;55.654;37.592;2023-04-05T12:57:50;99256.03;;;20.60;39.77
35443;BME280;21561;55.654;37.592;2023-04-05T13:00:17;99298.97;;;20.95;40.25
35443;BME280;21561;55.654;37.592;2023-04-05T13:02:47;99177.78;;;21.08;38.02
35443;BME280;21561;55.654;37.592;2023-04-05T13:05:14;99163.03;;;20.90;37.77
35443;BME280;21561;55.654;37.592;2023-04-05T13:07:40;99265.63;;;21.10;39.45
35443;BME280;21561;55.654;37.592;2023-04-05T13:10:07;99172.22;;;21.29;37.68
35443;BME280;21561;55.654;37.592;2023-04-05T13:12:34;99217.25;;;21.26;38.89
35443;BME280;21561;55.654;37.592;2023-04-05T13:15:00;99210.56;;;21.50;38.61
35443;BME280;21561;55.654;37.592;2023-04-05T13:17:27;99107.44;;;21.68;35.86
35443;BME280;21561;55.654;37.592;2023-04-05T13:19:54;99067.56;;;21.13;34.23
35443;BME280;21561;55.654;37.592;2023-04-05T13:22:21;99099.53;;;20.78;37.27
35443;BME280;21561;55.654;37.592;2023-04-05T13:24:47;99222.22;;;20.52;38.67
35443;BME280;21561;55.654;37.592;2023-04-05T13:27:14;99189.91;;;20.96;37.72
35443;BME280;21561;55.654;37.592;2023-04-05T13:29:41;99041.00;;;21.02;34.89
35443;BME280;21561;55.654;37.592;2023-04-05T13:32:07;99137.72;;;20.71;36.81
35443;BME280;21561;55.654;37.592;2023-04-05T13:34:34;99162.22;;;20.73;37.05
35443;BME280;21561;55.654;37.592;2023-04-05T13:37:00;99182.41;;;20.89;37.58
35443;BME280;21561;55.654;37.592;2023-04-05T13:39:27;99184.16;;;21.20;37.72